WC StCyr

Date de la prise de vue : 07/02/2023 20:01:00
N'ayant pas de Météo à StCyr, voilà le METAR et le TAF de Villacoublay :
2023/02/07 18:30 LFPV 071830Z AUTO 06007KT CAVOK 03/M02 Q1036 NOSIG
2023/02/07 15:22 TAF LFPV 071400Z 0715/0815 06008KT CAVOK TX05/0715Z TNM01/0806Z